createdAt,value
2019-05-18T00:02:24.772Z,16.73
2019-05-18T00:04:55.142Z,16.07
2019-05-18T00:07:24.824Z,16.53
2019-05-18T00:09:54.469Z,14.97
2019-05-18T00:12:24.067Z,15.77
2019-05-18T00:14:54.329Z,15.83
2019-05-18T00:17:25.568Z,16.07
2019-05-18T00:19:55.983Z,14.87
2019-05-18T00:22:25.675Z,16.00
2019-05-18T00:24:55.943Z,15.23
2019-05-18T00:27:25.687Z,14.97
2019-05-18T00:29:55.933Z,15.90
2019-05-18T00:32:25.635Z,15.63
2019-05-18T00:34:55.886Z,14.93
2019-05-18T00:37:25.601Z,15.73
2019-05-18T00:39:55.834Z,14.73
2019-05-18T00:42:25.530Z,16.07
2019-05-18T00:44:55.842Z,15.00
2019-05-18T00:47:40.078Z,14.13
2019-05-18T00:49:57.404Z,15.47
2019-05-18T00:52:27.726Z,17.70
2019-05-18T00:54:58.076Z,16.60
2019-05-18T00:57:28.401Z,16.40
2019-05-18T00:59:58.778Z,16.30
2019-05-18T01:02:29.126Z,15.17
2019-05-18T01:04:59.474Z,13.93
2019-05-18T01:07:29.799Z,14.90
2019-05-18T01:10:00.170Z,15.97
2019-05-18T01:12:30.632Z,15.63
2019-05-18T01:15:00.991Z,15.80
2019-05-18T01:17:30.693Z,15.47
2019-05-18T01:20:00.409Z,14.70
2019-05-18T01:22:30.685Z,14.47
2019-05-18T01:25:01.035Z,16.47
2019-05-18T01:27:30.711Z,16.27
2019-05-18T01:30:00.348Z,16.27
2019-05-18T01:32:30.628Z,15.63
2019-05-18T01:35:00.323Z,15.00
2019-05-18T01:37:30.569Z,15.60
2019-05-18T01:40:00.959Z,14.47
2019-05-18T01:42:31.325Z,14.77
2019-05-18T01:45:15.732Z,16.80
2019-05-18T01:47:33.717Z,14.30
2019-05-18T01:50:04.078Z,16.13
2019-05-18T01:52:34.443Z,14.90
2019-05-18T01:55:05.009Z,17.70
2019-05-18T01:57:34.816Z,16.32
2019-05-18T02:00:06.251Z,16.13
2019-05-18T02:02:35.940Z,17.70
2019-05-18T02:05:06.435Z,17.87
2019-05-18T02:07:36.121Z,17.07
2019-05-18T02:10:08.197Z,16.40
2019-05-18T02:12:38.546Z,18.53
2019-05-18T02:15:09.321Z,17.35
2019-05-18T02:17:39.032Z,15.97
2019-05-18T02:20:09.602Z,17.63
2019-05-18T02:22:39.954Z,17.83
2019-05-18T02:25:10.330Z,17.83
2019-05-18T02:27:40.115Z,17.60
2019-05-18T02:30:11.197Z,17.47
2019-05-18T02:32:41.572Z,18.47
2019-05-18T02:35:11.908Z,17.47
2019-05-18T02:37:42.287Z,18.30
2019-05-18T02:40:12.830Z,19.10
2019-05-18T02:42:43.175Z,19.10
2019-05-18T02:45:13.649Z,18.80
2019-05-18T02:47:44.029Z,18.93
2019-05-18T02:50:14.504Z,18.90
2019-05-18T02:52:44.928Z,19.73
2019-05-18T02:55:15.216Z,19.27
2019-05-18T02:57:45.581Z,19.40
2019-05-18T03:00:16.758Z,20.33
2019-05-18T03:02:47.102Z,19.87
2019-05-18T03:05:16.798Z,20.20
2019-05-18T03:07:47.079Z,19.83
2019-05-18T03:10:17.272Z,19.53
2019-05-18T03:12:47.676Z,20.63
2019-05-18T03:15:18.051Z,20.93
2019-05-18T03:17:48.395Z,21.27
2019-05-18T03:20:19.213Z,20.47
2019-05-18T03:22:49.456Z,22.70
2019-05-18T03:25:20.423Z,22.00
2019-05-18T03:27:50.104Z,22.67
2019-05-18T03:30:20.566Z,22.60
2019-05-18T03:32:50.925Z,22.53
2019-05-18T03:35:21.284Z,24.23
2019-05-18T03:37:50.964Z,23.67
2019-05-18T03:40:21.188Z,24.37
2019-05-18T03:42:51.570Z,25.17
2019-05-18T03:45:21.953Z,26.00
2019-05-18T03:47:51.639Z,25.70
2019-05-18T03:50:21.938Z,23.97
2019-05-18T03:52:52.312Z,23.97
2019-05-18T03:55:21.983Z,25.83
2019-05-18T03:57:51.609Z,25.07
2019-05-18T04:00:21.875Z,26.47
2019-05-18T04:02:52.258Z,27.53
2019-05-18T04:05:21.972Z,27.73
2019-05-18T04:07:51.576Z,26.23
2019-05-18T04:10:25.071Z,28.60
2019-05-18T04:12:55.357Z,26.60
2019-05-18T04:15:25.702Z,26.93
2019-05-18T04:17:55.426Z,30.53
2019-05-18T04:20:25.811Z,28.57
2019-05-18T04:22:55.488Z,29.03
2019-05-18T04:25:25.732Z,30.47
2019-05-18T04:27:55.429Z,29.43
2019-05-18T04:30:25.670Z,28.97
2019-05-18T04:32:56.183Z,30.57
2019-05-18T04:35:26.523Z,33.70
2019-05-18T04:37:56.456Z,31.60
2019-05-18T04:40:26.707Z,32.48
2019-05-18T04:42:56.394Z,31.47
2019-05-18T04:45:26.668Z,32.30
2019-05-18T04:47:57.038Z,32.87
2019-05-18T04:50:27.366Z,33.63
2019-05-18T04:52:57.062Z,32.73
2019-05-18T04:55:27.356Z,35.60
2019-05-18T04:57:57.671Z,34.63
2019-05-18T05:00:28.055Z,35.40
2019-05-18T05:02:58.378Z,34.07
2019-05-18T05:05:28.074Z,35.07
2019-05-18T05:07:58.345Z,34.47
2019-05-18T05:10:28.060Z,34.33
2019-05-18T05:12:58.325Z,35.30
2019-05-18T05:15:28.024Z,35.70
2019-05-18T05:17:58.272Z,35.73
2019-05-18T05:20:27.951Z,36.00
2019-05-18T05:22:58.217Z,35.43
2019-05-18T05:25:27.899Z,35.60
2019-05-18T05:27:58.138Z,33.70
2019-05-18T05:30:28.549Z,34.57
2019-05-18T05:32:58.887Z,34.70
2019-05-18T05:35:28.587Z,32.90
2019-05-18T05:37:58.392Z,32.60
2019-05-18T05:40:28.024Z,33.43
2019-05-18T05:42:58.285Z,32.80
2019-05-18T05:45:27.990Z,33.10
2019-05-18T05:47:58.300Z,32.17
2019-05-18T05:50:35.813Z,32.27
2019-05-18T05:52:59.903Z,32.97
2019-05-18T05:55:29.601Z,31.33
2019-05-18T05:57:59.885Z,31.43
2019-05-18T06:00:30.216Z,32.10
2019-05-18T06:02:59.971Z,31.63
2019-05-18T06:05:29.729Z,32.17
2019-05-18T06:07:59.363Z,31.03
2019-05-18T06:10:29.621Z,31.77
2019-05-18T06:12:59.975Z,28.90
2019-05-18T06:15:30.383Z,29.87
2019-05-18T06:18:00.744Z,30.03
2019-05-18T06:20:31.156Z,29.40
2019-05-18T06:23:01.585Z,29.83
2019-05-18T06:25:34.315Z,30.10
2019-05-18T06:28:03.975Z,29.70
2019-05-18T06:30:34.446Z,29.43
2019-05-18T06:33:04.826Z,30.47
2019-05-18T06:35:35.212Z,30.47
2019-05-18T06:38:05.115Z,30.33
2019-05-18T06:40:35.507Z,29.87
2019-05-18T06:43:05.245Z,29.80
2019-05-18T06:45:34.874Z,29.40
2019-05-18T06:48:04.641Z,29.83
2019-05-18T06:50:34.241Z,28.60
2019-05-18T06:53:04.558Z,27.17
2019-05-18T06:55:35.487Z,25.83
2019-05-18T06:58:05.366Z,26.23
2019-05-18T07:00:35.810Z,25.37
2019-05-18T07:03:05.543Z,26.00
2019-05-18T07:05:35.904Z,25.17
2019-05-18T07:08:05.646Z,24.43
2019-05-18T07:10:35.303Z,24.17
2019-05-18T07:13:04.985Z,22.53
2019-05-18T07:15:35.287Z,24.60
2019-05-18T07:18:05.010Z,24.40
2019-05-18T07:20:34.692Z,22.87
2019-05-18T07:23:04.995Z,25.10
2019-05-18T07:25:35.362Z,25.20
2019-05-18T07:28:05.937Z,23.93
2019-05-18T07:30:35.650Z,24.07
2019-05-18T07:33:05.285Z,23.60
2019-05-18T07:35:34.885Z,26.00
2019-05-18T07:38:05.198Z,24.73
2019-05-18T07:40:34.897Z,23.42
2019-05-18T07:43:05.189Z,24.87
2019-05-18T07:45:34.867Z,23.87
2019-05-18T07:48:05.136Z,22.17
2019-05-18T07:50:34.829Z,22.30
2019-05-18T07:53:05.129Z,23.33
2019-05-18T07:55:35.500Z,23.00
2019-05-18T07:58:05.838Z,21.90
2019-05-18T08:00:35.547Z,22.27
2019-05-18T08:03:05.838Z,24.93
2019-05-18T08:05:35.577Z,24.33
2019-05-18T08:08:05.175Z,24.57
2019-05-18T08:10:35.724Z,23.83
2019-05-18T08:13:06.932Z,25.03
2019-05-18T08:15:36.635Z,24.90
2019-05-18T08:18:07.025Z,23.90
2019-05-18T08:20:36.727Z,24.05
2019-05-18T08:23:06.991Z,23.83
2019-05-18T08:25:37.344Z,24.83
2019-05-18T08:28:07.729Z,23.63
2019-05-18T08:30:37.428Z,24.67
2019-05-18T08:33:07.717Z,24.50
2019-05-18T08:35:37.393Z,24.37
2019-05-18T08:38:07.003Z,25.83
2019-05-18T08:40:37.228Z,27.63
2019-05-18T08:43:06.923Z,29.17
2019-05-18T08:45:36.532Z,27.70
2019-05-18T08:48:06.149Z,28.30
2019-05-18T08:50:35.759Z,25.50
2019-05-18T08:53:06.110Z,23.70
2019-05-18T08:55:35.791Z,24.87
2019-05-18T08:58:05.441Z,24.10
2019-05-18T09:00:35.042Z,24.90
2019-05-18T09:03:05.297Z,23.67
2019-05-18T09:05:34.967Z,23.00
2019-05-18T09:08:04.626Z,22.73
2019-05-18T09:10:34.861Z,22.17
2019-05-18T09:13:05.222Z,22.73
2019-05-18T09:15:34.903Z,24.07
2019-05-18T09:18:05.078Z,23.70
2019-05-18T09:20:35.005Z,25.37
2019-05-18T09:23:05.459Z,30.60
2019-05-18T09:25:35.134Z,25.00
2019-05-18T09:28:04.690Z,24.00
2019-05-18T09:30:35.049Z,22.63
2019-05-18T09:33:05.501Z,23.73
2019-05-18T09:35:35.195Z,24.15
2019-05-18T09:38:04.797Z,28.20
2019-05-18T09:40:35.108Z,26.62
2019-05-18T09:43:05.604Z,27.03
2019-05-18T09:45:35.343Z,28.60
2019-05-18T09:48:05.332Z,27.20
2019-05-18T09:50:35.104Z,28.70
2019-05-18T09:53:05.279Z,25.70
2019-05-18T09:55:35.190Z,26.13
2019-05-18T09:58:04.791Z,25.80
2019-05-18T10:00:38.434Z,26.70
2019-05-18T10:03:07.514Z,27.83
2019-05-18T10:05:37.271Z,27.67
2019-05-18T10:08:06.866Z,28.10
2019-05-18T10:10:36.556Z,26.13
2019-05-18T10:13:06.833Z,29.57
2019-05-18T10:15:38.595Z,27.03
2019-05-18T10:18:09.048Z,27.50
2019-05-18T10:20:39.387Z,28.60
2019-05-18T10:23:13.656Z,30.43
2019-05-18T10:25:41.269Z,29.83
2019-05-18T10:28:10.932Z,29.63
2019-05-18T10:30:41.347Z,29.17
2019-05-18T10:33:11.755Z,30.30
2019-05-18T10:35:41.581Z,30.83
2019-05-18T10:38:11.281Z,30.80
2019-05-18T10:40:41.596Z,31.90
2019-05-18T10:43:11.980Z,32.77
2019-05-18T10:45:45.079Z,35.20
2019-05-18T10:48:14.547Z,33.10
2019-05-18T10:50:45.320Z,33.67
2019-05-18T10:53:27.826Z,34.57
2019-05-18T10:55:47.521Z,36.20
2019-05-18T10:58:18.036Z,38.37
2019-05-18T11:00:48.511Z,39.03
2019-05-18T11:03:18.892Z,38.43
2019-05-18T11:05:49.368Z,40.97
2019-05-18T11:08:19.842Z,39.20
2019-05-18T11:10:50.379Z,41.50
2019-05-18T11:13:21.530Z,42.80
2019-05-18T11:15:51.277Z,41.47
2019-05-18T11:18:21.555Z,38.90
2019-05-18T11:20:51.296Z,40.17
2019-05-18T11:23:21.555Z,39.40
2019-05-18T11:25:51.264Z,40.50
2019-05-18T11:28:20.948Z,39.83
2019-05-18T11:30:51.299Z,40.00
2019-05-18T11:33:21.665Z,41.93
2019-05-18T11:35:52.121Z,42.73
2019-05-18T11:38:21.911Z,42.27
2019-05-18T11:40:52.392Z,39.83
2019-05-18T11:43:22.163Z,40.37
2019-05-18T11:45:52.583Z,39.20
2019-05-18T11:48:22.330Z,39.23
2019-05-18T11:50:52.778Z,40.63
2019-05-18T11:53:22.638Z,41.40
2019-05-18T11:55:53.007Z,42.03
2019-05-18T11:58:22.763Z,42.93
2019-05-18T12:00:53.313Z,41.70
2019-05-18T12:03:23.014Z,40.87
2019-05-18T12:05:52.700Z,42.13
2019-05-18T12:08:23.042Z,43.60
2019-05-18T12:10:56.078Z,43.37
2019-05-18T12:13:24.960Z,41.90
2019-05-18T12:15:55.298Z,41.63
2019-05-18T12:18:25.050Z,43.20
2019-05-18T12:20:55.534Z,43.37
2019-05-18T12:23:25.249Z,43.00
2019-05-18T12:25:55.060Z,42.17
2019-05-18T12:28:25.395Z,40.03
2019-05-18T12:30:55.786Z,43.47
2019-05-18T12:33:28.121Z,42.07
2019-05-18T12:35:57.815Z,40.83
2019-05-18T12:38:27.441Z,40.63
2019-05-18T12:40:57.817Z,41.37
2019-05-18T12:43:27.590Z,37.90
2019-05-18T12:45:58.445Z,37.37
2019-05-18T12:48:28.151Z,40.97
2019-05-18T12:50:58.577Z,42.00
2019-05-18T12:53:28.947Z,42.65
2019-05-18T12:55:59.332Z,40.40
2019-05-18T12:58:29.061Z,33.92
2019-05-18T13:00:59.352Z,41.17
2019-05-18T13:03:29.796Z,42.40
2019-05-18T13:06:00.204Z,40.63
2019-05-18T13:08:29.922Z,45.78
2019-05-18T13:11:00.257Z,46.60
2019-05-18T13:13:30.669Z,46.53
2019-05-18T13:16:01.049Z,44.13
2019-05-18T13:18:31.578Z,47.10
2019-05-18T13:21:01.951Z,46.57
2019-05-18T13:23:31.681Z,42.57
2019-05-18T13:26:01.989Z,44.27
2019-05-18T13:28:32.417Z,43.83
2019-05-18T13:31:06.715Z,46.93
2019-05-18T13:33:39.783Z,43.00
2019-05-18T13:36:11.678Z,41.87
2019-05-18T13:38:41.710Z,36.87
2019-05-18T13:41:11.311Z,34.70
2019-05-18T13:43:41.782Z,35.47
2019-05-18T13:46:11.543Z,35.40
2019-05-18T13:48:41.866Z,38.73
2019-05-18T13:51:12.275Z,39.40
2019-05-18T13:53:42.664Z,39.03
2019-05-18T13:56:13.042Z,35.30
2019-05-18T13:58:42.775Z,37.50
2019-05-18T14:01:13.070Z,37.70
2019-05-18T14:03:43.507Z,36.17
2019-05-18T14:06:16.032Z,35.47
2019-05-18T14:08:45.778Z,35.43
2019-05-18T14:11:16.079Z,36.37
2019-05-18T14:13:45.794Z,34.30
2019-05-18T14:16:16.077Z,39.00
2019-05-18T14:18:45.787Z,38.38
2019-05-18T14:21:15.428Z,35.88
2019-05-18T14:23:45.078Z,36.15
2019-05-18T14:26:15.354Z,36.73
2019-05-18T14:28:45.063Z,40.98
2019-05-18T14:31:14.722Z,43.45
2019-05-18T14:33:45.067Z,43.05
2019-05-18T14:36:14.874Z,40.70
2019-05-18T14:38:45.294Z,45.23
2019-05-18T14:41:15.009Z,43.57
2019-05-18T14:43:45.259Z,42.27
2019-05-18T14:46:14.959Z,40.20
2019-05-18T14:48:45.279Z,37.93
2019-05-18T14:51:14.997Z,40.43
2019-05-18T14:53:45.233Z,38.47
2019-05-18T14:56:14.953Z,38.17
2019-05-18T14:58:45.295Z,40.43
2019-05-18T15:01:15.243Z,38.47
2019-05-18T15:03:45.507Z,38.50
2019-05-18T15:06:15.307Z,38.50
2019-05-18T15:08:45.557Z,36.77
2019-05-18T15:11:15.279Z,36.80
2019-05-18T15:13:45.628Z,35.57
2019-05-18T15:16:15.350Z,36.27
2019-05-18T15:18:45.653Z,33.78
2019-05-18T15:21:15.387Z,32.87
2019-05-18T15:23:45.007Z,34.87
2019-05-18T15:26:22.077Z,34.50
2019-05-18T15:29:10.524Z,34.10
2019-05-18T15:31:40.930Z,34.03
2019-05-18T15:34:11.440Z,34.73
2019-05-18T15:36:41.957Z,34.73
2019-05-18T15:39:17.764Z,35.35
2019-05-18T15:41:48.421Z,34.25
2019-05-18T15:44:18.849Z,35.38
2019-05-18T15:46:49.273Z,36.10
2019-05-18T15:49:20.534Z,36.24
2019-05-18T15:51:50.339Z,36.37
2019-05-18T15:54:20.666Z,34.10
2019-05-18T15:56:51.150Z,35.57
2019-05-18T15:59:20.985Z,38.17
2019-05-18T16:01:51.313Z,36.27
2019-05-18T16:04:21.167Z,37.20
2019-05-18T16:06:51.489Z,36.87
2019-05-18T16:09:21.214Z,36.83
2019-05-18T16:11:51.517Z,36.87
2019-05-18T16:14:21.277Z,36.07
2019-05-18T16:16:54.868Z,38.23
2019-05-18T16:19:23.797Z,38.98
2019-05-18T16:21:54.242Z,40.07
2019-05-18T16:24:24.101Z,38.33
2019-05-18T16:26:54.495Z,38.67
2019-05-18T16:29:25.864Z,34.60
2019-05-18T16:31:55.617Z,34.70
2019-05-18T16:34:25.313Z,36.47
2019-05-18T16:36:55.605Z,35.30
2019-05-18T16:39:25.337Z,40.43
2019-05-18T16:41:55.588Z,42.70
2019-05-18T16:44:25.537Z,41.10
2019-05-18T16:46:55.206Z,43.93
2019-05-18T16:49:25.497Z,42.30
2019-05-18T16:51:55.934Z,43.23
2019-05-18T16:54:26.645Z,45.67
2019-05-18T16:56:57.029Z,46.30
2019-05-18T16:59:26.776Z,45.53
2019-05-18T17:01:57.109Z,46.93
2019-05-18T17:04:27.543Z,45.03
2019-05-18T17:06:57.944Z,47.00
2019-05-18T17:09:27.873Z,47.07
2019-05-18T17:11:57.528Z,44.67
2019-05-18T17:14:27.219Z,47.97
2019-05-18T17:16:57.519Z,48.27
2019-05-18T17:19:27.224Z,48.98
2019-05-18T17:21:57.611Z,49.73
2019-05-18T17:24:27.999Z,50.65
2019-05-18T17:26:57.674Z,50.30
2019-05-18T17:29:27.280Z,50.80
2019-05-18T17:31:57.503Z,50.07
2019-05-18T17:34:27.258Z,49.13
2019-05-18T17:36:56.852Z,52.00
2019-05-18T17:39:26.515Z,51.27
2019-05-18T17:41:56.145Z,49.37
2019-05-18T17:44:25.797Z,50.83
2019-05-18T17:46:55.401Z,51.17
2019-05-18T17:49:27.011Z,50.90
2019-05-18T17:51:56.293Z,48.10
2019-05-18T17:54:26.626Z,50.57
2019-05-18T17:57:08.057Z,51.10
2019-05-18T17:59:28.184Z,50.37
2019-05-18T18:01:57.880Z,51.83
2019-05-18T18:04:28.141Z,50.57
2019-05-18T18:06:57.992Z,49.97
2019-05-18T18:09:28.345Z,50.77
2019-05-18T18:11:58.038Z,51.30
2019-05-18T18:14:27.605Z,49.43
2019-05-18T18:16:57.231Z,48.10
2019-05-18T18:19:27.566Z,48.23
2019-05-18T18:21:57.298Z,50.90
2019-05-18T18:24:27.644Z,51.70
2019-05-18T18:26:58.055Z,51.50
2019-05-18T18:29:28.418Z,48.20
2019-05-18T18:31:58.100Z,48.30
2019-05-18T18:34:27.746Z,49.57
2019-05-18T18:36:58.049Z,48.00
2019-05-18T18:39:28.436Z,47.50
2019-05-18T18:41:58.161Z,48.17
2019-05-18T18:44:27.808Z,50.10
2019-05-18T18:46:58.122Z,46.67
2019-05-18T18:49:28.505Z,47.30
2019-05-18T18:51:58.961Z,48.67
2019-05-18T18:54:28.681Z,48.50
2019-05-18T18:56:58.934Z,50.73
2019-05-18T18:59:28.671Z,47.53
2019-05-18T19:01:58.928Z,47.37
2019-05-18T19:04:28.659Z,48.17
2019-05-18T19:06:58.932Z,47.20
2019-05-18T19:09:28.654Z,50.20
2019-05-18T19:11:58.908Z,49.50
2019-05-18T19:14:28.635Z,49.60
2019-05-18T19:16:58.891Z,46.27
2019-05-18T19:19:28.601Z,45.83
2019-05-18T19:21:58.205Z,48.33
2019-05-18T19:24:27.874Z,46.70
2019-05-18T19:26:58.342Z,48.33
2019-05-18T19:29:28.746Z,47.50
2019-05-18T19:31:59.141Z,46.77
2019-05-18T19:34:28.953Z,48.00
2019-05-18T19:36:59.354Z,47.40
2019-05-18T19:39:29.063Z,48.90
2019-05-18T19:41:59.368Z,50.53
2019-05-18T19:44:29.071Z,49.55
2019-05-18T19:46:59.486Z,48.73
2019-05-18T19:49:29.348Z,45.83
2019-05-18T19:51:59.708Z,44.60
2019-05-18T19:54:29.835Z,47.60
2019-05-18T19:56:59.564Z,44.70
2019-05-18T19:59:29.816Z,47.70
2019-05-18T20:01:59.600Z,47.23
2019-05-18T20:04:29.272Z,45.87
2019-05-18T20:06:59.551Z,47.10
2019-05-18T20:09:31.173Z,45.23
2019-05-18T20:12:01.697Z,45.90
2019-05-18T20:14:31.466Z,45.53
2019-05-18T20:17:01.267Z,45.87
2019-05-18T20:19:39.411Z,44.55
2019-05-18T20:22:02.816Z,45.80
2019-05-18T20:24:32.510Z,44.47
2019-05-18T20:27:02.733Z,44.30
2019-05-18T20:29:33.081Z,46.42
2019-05-18T20:32:03.429Z,48.30
2019-05-18T20:34:33.777Z,47.58
2019-05-18T20:37:04.122Z,46.57
2019-05-18T20:39:34.494Z,47.27
2019-05-18T20:42:04.889Z,46.77
2019-05-18T20:44:35.314Z,44.77
2019-05-18T20:47:05.677Z,44.80
2019-05-18T20:49:36.014Z,45.33
2019-05-18T20:52:06.405Z,44.13
2019-05-18T20:54:36.787Z,46.70
2019-05-18T20:57:07.134Z,44.10
2019-05-18T20:59:37.463Z,45.13
2019-05-18T21:02:07.832Z,46.77
2019-05-18T21:04:40.455Z,43.23
2019-05-18T21:07:10.161Z,45.27
2019-05-18T21:09:40.454Z,45.30
2019-05-18T21:12:10.119Z,44.77
2019-05-18T21:14:41.220Z,44.83
2019-05-18T21:17:10.918Z,46.20
2019-05-18T21:19:41.179Z,48.13
2019-05-18T21:22:10.885Z,46.77
2019-05-18T21:24:41.208Z,50.13
2019-05-18T21:27:10.903Z,51.20
2019-05-18T21:29:41.194Z,50.30
2019-05-18T21:32:11.556Z,51.83
2019-05-18T21:34:41.278Z,54.70
2019-05-18T21:37:10.869Z,58.05
2019-05-18T21:39:40.509Z,56.93
2019-05-18T21:42:10.791Z,54.20
2019-05-18T21:44:40.508Z,54.33
2019-05-18T21:47:10.088Z,55.50
2019-05-18T21:49:39.703Z,53.77
2019-05-18T21:52:10.013Z,52.90
2019-05-18T21:54:40.502Z,52.37
2019-05-18T21:57:10.214Z,53.13
2019-05-18T21:59:39.815Z,55.47
2019-05-18T22:02:10.097Z,54.10
2019-05-18T22:04:42.044Z,55.83
2019-05-18T22:07:12.445Z,55.80
2019-05-18T22:09:42.139Z,53.23
2019-05-18T22:12:11.734Z,54.80
2019-05-18T22:14:41.312Z,58.37
2019-05-18T22:17:10.931Z,56.83
2019-05-18T22:19:40.499Z,60.10
2019-05-18T22:22:10.104Z,55.40
2019-05-18T22:24:40.361Z,57.73
2019-05-18T22:27:10.038Z,54.97
2019-05-18T22:29:40.286Z,60.97
2019-05-18T22:32:09.952Z,56.30
2019-05-18T22:34:40.226Z,53.30
2019-05-18T22:37:09.898Z,56.30
2019-05-18T22:39:40.154Z,56.00
2019-05-18T22:42:09.819Z,54.83
2019-05-18T22:44:41.557Z,55.60
2019-05-18T22:47:11.502Z,54.63
2019-05-18T22:49:41.785Z,58.03
2019-05-18T22:52:12.179Z,57.53
2019-05-18T22:54:42.521Z,58.83
2019-05-18T22:57:12.888Z,58.93
2019-05-18T22:59:43.242Z,57.03
2019-05-18T23:02:12.953Z,55.77
2019-05-18T23:04:43.201Z,55.30
2019-05-18T23:07:12.917Z,58.33
2019-05-18T23:09:43.310Z,54.83
2019-05-18T23:12:12.985Z,53.30
2019-05-18T23:14:43.264Z,54.67
2019-05-18T23:17:12.927Z,54.40
2019-05-18T23:19:43.203Z,54.50
2019-05-18T23:22:12.916Z,57.07
2019-05-18T23:24:43.167Z,55.50
2019-05-18T23:27:13.510Z,52.70
2019-05-18T23:29:43.882Z,53.43
2019-05-18T23:32:14.228Z,52.80
2019-05-18T23:34:44.573Z,50.37
2019-05-18T23:37:14.967Z,52.03
2019-05-18T23:39:44.655Z,52.93
2019-05-18T23:42:14.903Z,50.80
2019-05-18T23:44:45.243Z,48.50
2019-05-18T23:47:14.921Z,49.03
2019-05-18T23:49:45.185Z,47.77
2019-05-18T23:52:15.604Z,47.90
2019-05-18T23:54:45.886Z,49.23
2019-05-18T23:57:16.247Z,49.83
2019-05-18T23:59:46.564Z,50.33
